sensor_id;sensor_type;location;lat;lon;timestamp;pressure;altitude;pressure_sealevel;temperature;humidity
3096;BME280;1558;42.700;23.360;2022-12-18T00:00:05;96054.63;;;6.24;100.00
3096;BME280;1558;42.700;23.360;2022-12-18T00:02:34;96037.06;;;6.13;100.00
3096;BME280;1558;42.700;23.360;2022-12-18T00:05:02;96041.84;;;6.16;100.00
3096;BME280;1558;42.700;23.360;2022-12-18T00:07:30;96086.81;;;6.43;100.00
3096;BME280;1558;42.700;23.360;2022-12-18T00:09:58;96084.75;;;6.35;100.00
3096;BME280;1558;42.700;23.360;2022-12-18T00:12:26;96072.50;;;6.29;100.00
3096;BME280;1558;42.700;23.360;2022-12-18T00:14:55;96063.25;;;6.16;100.00
3096;BME280;1558;42.700;23.360;2022-12-18T00:17:25;96094.44;;;6.31;100.00
3096;BME280;1558;42.700;23.360;2022-12-18T00:19:52;96100.09;;;6.29;100.00
3096;BME280;1558;42.700;23.360;2022-12-18T00:22:20;96098.28;;;6.25;100.00
3096;BME280;1558;42.700;23.360;2022-12-18T00:24:48;96103.16;;;6.18;100.00
3096;BME280;1558;42.700;23.360;2022-12-18T00:27:16;96094.16;;;6.08;100.00
3096;BME280;1558;42.700;23.360;2022-12-18T00:29:44;96112.81;;;6.13;100.00
3096;BME280;1558;42.700;23.360;2022-12-18T00:32:12;96108.28;;;6.14;100.00
3096;BME280;1558;42.700;23.360;2022-12-18T00:34:41;96109.16;;;6.04;100.00
3096;BME280;1558;42.700;23.360;2022-12-18T00:37:09;96103.56;;;6.06;100.00
3096;BME280;1558;42.700;23.360;2022-12-18T00:39:43;96130.38;;;6.01;100.00
3096;BME280;1558;42.700;23.360;2022-12-18T00:42:11;96131.47;;;5.95;100.00
3096;BME280;1558;42.700;23.360;2022-12-18T00:44:57;96123.69;;;5.98;100.00
3096;BME280;1558;42.700;23.360;2022-12-18T00:47:25;96130.13;;;5.97;100.00
3096;BME280;1558;42.700;23.360;2022-12-18T00:49:54;96136.03;;;5.94;100.00
3096;BME280;1558;42.700;23.360;2022-12-18T00:52:22;96125.66;;;5.83;100.00
3096;BME280;1558;42.700;23.360;2022-12-18T00:54:50;96135.00;;;5.90;100.00
3096;BME280;1558;42.700;23.360;2022-12-18T00:57:18;96127.78;;;5.91;100.00
3096;BME280;1558;42.700;23.360;2022-12-18T00:59:46;96122.81;;;5.74;100.00
3096;BME280;1558;42.700;23.360;2022-12-18T01:02:13;96122.63;;;5.66;100.00
3096;BME280;1558;42.700;23.360;2022-12-18T01:04:41;96153.22;;;5.83;100.00
3096;BME280;1558;42.700;23.360;2022-12-18T01:07:11;96114.88;;;5.59;100.00
3096;BME280;1558;42.700;23.360;2022-12-18T01:09:38;96147.13;;;5.78;100.00
3096;BME280;1558;42.700;23.360;2022-12-18T01:12:06;96155.97;;;5.73;100.00
3096;BME280;1558;42.700;23.360;2022-12-18T01:14:34;96164.53;;;5.75;100.00
3096;BME280;1558;42.700;23.360;2022-12-18T01:17:02;96161.66;;;5.67;100.00
3096;BME280;1558;42.700;23.360;2022-12-18T01:19:30;96156.88;;;5.59;100.00
3096;BME280;1558;42.700;23.360;2022-12-18T01:21:58;96151.88;;;5.47;100.00
3096;BME280;1558;42.700;23.360;2022-12-18T01:24:28;96166.28;;;5.56;100.00
3096;BME280;1558;42.700;23.360;2022-12-18T01:26:55;96159.91;;;5.47;100.00
3096;BME280;1558;42.700;23.360;2022-12-18T01:29:24;96154.66;;;5.37;100.00
3096;BME280;1558;42.700;23.360;2022-12-18T01:31:54;96154.38;;;5.38;100.00
3096;BME280;1558;42.700;23.360;2022-12-18T01:34:23;96168.50;;;5.44;100.00
3096;BME280;1558;42.700;23.360;2022-12-18T01:36:51;96095.47;;;5.05;100.00
3096;BME280;1558;42.700;23.360;2022-12-18T01:39:19;96158.38;;;5.36;100.00
3096;BME280;1558;42.700;23.360;2022-12-18T01:41:49;96169.56;;;5.43;100.00
3096;BME280;1558;42.700;23.360;2022-12-18T01:47:43;96175.28;;;5.26;100.00
3096;BME280;1558;42.700;23.360;2022-12-18T01:50:14;96175.31;;;5.21;100.00
3096;BME280;1558;42.700;23.360;2022-12-18T01:52:47;96176.41;;;5.20;100.00
3096;BME280;1558;42.700;23.360;2022-12-18T01:55:18;96187.13;;;5.15;100.00
3096;BME280;1558;42.700;23.360;2022-12-18T01:57:49;96170.84;;;5.07;100.00
3096;BME280;1558;42.700;23.360;2022-12-18T02:00:21;96170.06;;;5.06;100.00
3096;BME280;1558;42.700;23.360;2022-12-18T02:02:49;96187.66;;;5.17;100.00
3096;BME280;1558;42.700;23.360;2022-12-18T02:05:25;96187.94;;;5.16;100.00
3096;BME280;1558;42.700;23.360;2022-12-18T02:08:06;96167.16;;;4.98;100.00
3096;BME280;1558;42.700;23.360;2022-12-18T02:10:44;96203.97;;;5.16;100.00
3096;BME280;1558;42.700;23.360;2022-12-18T02:13:19;96203.41;;;5.19;100.00
3096;BME280;1558;42.700;23.360;2022-12-18T02:15:54;96187.16;;;5.05;100.00
3096;BME280;1558;42.700;23.360;2022-12-18T02:18:28;96178.66;;;4.93;100.00
3096;BME280;1558;42.700;23.360;2022-12-18T02:21:02;96199.75;;;5.00;100.00
3096;BME280;1558;42.700;23.360;2022-12-18T02:23:45;96220.56;;;5.13;100.00
3096;BME280;1558;42.700;23.360;2022-12-18T02:26:19;96216.56;;;5.10;100.00
3096;BME280;1558;42.700;23.360;2022-12-18T02:28:52;96071.81;;;4.19;100.00
3096;BME280;1558;42.700;23.360;2022-12-18T02:31:23;96165.91;;;4.75;100.00
3096;BME280;1558;42.700;23.360;2022-12-18T02:33:55;96187.81;;;4.82;100.00
3096;BME280;1558;42.700;23.360;2022-12-18T02:36:24;96228.06;;;5.11;100.00
3096;BME280;1558;42.700;23.360;2022-12-18T02:38:55;96169.38;;;4.75;100.00
3096;BME280;1558;42.700;23.360;2022-12-18T02:41:25;96215.53;;;4.96;100.00
3096;BME280;1558;42.700;23.360;2022-12-18T02:43:56;96219.03;;;4.97;100.00
3096;BME280;1558;42.700;23.360;2022-12-18T02:46:33;96213.69;;;4.92;100.00
3096;BME280;1558;42.700;23.360;2022-12-18T02:49:13;96223.28;;;4.98;100.00
3096;BME280;1558;42.700;23.360;2022-12-18T02:51:51;96233.75;;;4.89;100.00
3096;BME280;1558;42.700;23.360;2022-12-18T02:54:33;96233.47;;;4.86;100.00
3096;BME280;1558;42.700;23.360;2022-12-18T02:57:13;96230.56;;;4.82;100.00
3096;BME280;1558;42.700;23.360;2022-12-18T02:59:49;96225.22;;;4.82;100.00
3096;BME280;1558;42.700;23.360;2022-12-18T03:02:25;96206.25;;;4.68;100.00
3096;BME280;1558;42.700;23.360;2022-12-18T03:05:00;96187.09;;;4.51;100.00
3096;BME280;1558;42.700;23.360;2022-12-18T03:07:36;96230.06;;;4.70;100.00
3096;BME280;1558;42.700;23.360;2022-12-18T03:10:09;96233.25;;;4.67;100.00
3096;BME280;1558;42.700;23.360;2022-12-18T03:12:44;96248.22;;;4.68;100.00
3096;BME280;1558;42.700;23.360;2022-12-18T03:15:17;96250.91;;;4.68;100.00
3096;BME280;1558;42.700;23.360;2022-12-18T03:17:51;96245.56;;;4.73;100.00
3096;BME280;1558;42.700;23.360;2022-12-18T03:20:22;96255.69;;;4.76;100.00
3096;BME280;1558;42.700;23.360;2022-12-18T03:23:02;96253.28;;;4.74;100.00
3096;BME280;1558;42.700;23.360;2022-12-18T03:25:34;96254.63;;;4.77;100.00
3096;BME280;1558;42.700;23.360;2022-12-18T03:28:05;96251.41;;;4.75;100.00
3096;BME280;1558;42.700;23.360;2022-12-18T03:30:38;96255.69;;;4.76;100.00
3096;BME280;1558;42.700;23.360;2022-12-18T03:33:11;96255.97;;;4.74;100.00
3096;BME280;1558;42.700;23.360;2022-12-18T03:35:42;96241.03;;;4.48;100.00
3096;BME280;1558;42.700;23.360;2022-12-18T03:38:10;96271.72;;;4.71;100.00
3096;BME280;1558;42.700;23.360;2022-12-18T03:40:49;96267.19;;;4.71;100.00
3096;BME280;1558;42.700;23.360;2022-12-18T03:43:30;96273.31;;;4.72;100.00
3096;BME280;1558;42.700;23.360;2022-12-18T03:46:04;96206.09;;;4.30;100.00
3096;BME280;1558;42.700;23.360;2022-12-18T03:48:39;96231.69;;;4.36;100.00
3096;BME280;1558;42.700;23.360;2022-12-18T03:51:11;96291.75;;;4.73;100.00
3096;BME280;1558;42.700;23.360;2022-12-18T03:53:47;96293.66;;;4.73;100.00
3096;BME280;1558;42.700;23.360;2022-12-18T03:56:19;96265.59;;;4.50;100.00
3096;BME280;1558;42.700;23.360;2022-12-18T03:58:52;96230.94;;;4.25;100.00
3096;BME280;1558;42.700;23.360;2022-12-18T04:01:25;96288.56;;;4.61;100.00
3096;BME280;1558;42.700;23.360;2022-12-18T04:03:56;96300.34;;;4.60;100.00
3096;BME280;1558;42.700;23.360;2022-12-18T04:06:27;96302.19;;;4.55;100.00
3096;BME280;1558;42.700;23.360;2022-12-18T04:08:57;96312.06;;;4.54;100.00
3096;BME280;1558;42.700;23.360;2022-12-18T04:11:25;96304.34;;;4.48;100.00
3096;BME280;1558;42.700;23.360;2022-12-18T04:13:57;96293.41;;;4.39;100.00
3096;BME280;1558;42.700;23.360;2022-12-18T04:16:28;96310.50;;;4.53;100.00
3096;BME280;1558;42.700;23.360;2022-12-18T04:18:56;96322.22;;;4.52;100.00
3096;BME280;1558;42.700;23.360;2022-12-18T04:21:24;96326.50;;;4.53;100.00
3096;BME280;1558;42.700;23.360;2022-12-18T04:23:52;96314.75;;;4.34;100.00
3096;BME280;1558;42.700;23.360;2022-12-18T04:26:20;96338.25;;;4.52;100.00
3096;BME280;1558;42.700;23.360;2022-12-18T04:28:48;96342.00;;;4.51;100.00
3096;BME280;1558;42.700;23.360;2022-12-18T04:31:17;96335.59;;;4.52;100.00
3096;BME280;1558;42.700;23.360;2022-12-18T04:33:45;96331.84;;;4.53;100.00
3096;BME280;1558;42.700;23.360;2022-12-18T04:36:13;96338.53;;;4.46;100.00
3096;BME280;1558;42.700;23.360;2022-12-18T04:38:41;96334.78;;;4.37;100.00
3096;BME280;1558;42.700;23.360;2022-12-18T04:41:09;96347.88;;;4.38;100.00
3096;BME280;1558;42.700;23.360;2022-12-18T04:43:39;96349.72;;;4.43;100.00
3096;BME280;1558;42.700;23.360;2022-12-18T04:46:08;96350.25;;;4.40;100.00
3096;BME280;1558;42.700;23.360;2022-12-18T04:48:38;96356.94;;;4.32;100.00
3096;BME280;1558;42.700;23.360;2022-12-18T04:51:06;96282.16;;;3.87;100.00
3096;BME280;1558;42.700;23.360;2022-12-18T04:53:34;96360.41;;;4.33;100.00
3096;BME280;1558;42.700;23.360;2022-12-18T04:56:07;96334.50;;;4.08;100.00
3096;BME280;1558;42.700;23.360;2022-12-18T04:58:36;96377.78;;;4.30;100.00
3096;BME280;1558;42.700;23.360;2022-12-18T05:01:05;96373.50;;;4.34;100.00
3096;BME280;1558;42.700;23.360;2022-12-18T05:03:36;96333.44;;;4.04;100.00
3096;BME280;1558;42.700;23.360;2022-12-18T05:06:07;96379.88;;;4.23;100.00
3096;BME280;1558;42.700;23.360;2022-12-18T05:08:35;96188.59;;;2.96;100.00
3096;BME280;1558;42.700;23.360;2022-12-18T05:11:05;96366.53;;;4.08;100.00
3096;BME280;1558;42.700;23.360;2022-12-18T05:13:34;96376.41;;;4.13;100.00
3096;BME280;1558;42.700;23.360;2022-12-18T05:16:02;96382.00;;;4.06;100.00
3096;BME280;1558;42.700;23.360;2022-12-18T05:18:31;96395.34;;;4.21;100.00
3096;BME280;1558;42.700;23.360;2022-12-18T05:20:59;96398.59;;;4.18;100.00
3096;BME280;1558;42.700;23.360;2022-12-18T05:23:29;96408.97;;;4.20;100.00
3096;BME280;1558;42.700;23.360;2022-12-18T05:25:59;96412.72;;;4.19;100.00
3096;BME280;1558;42.700;23.360;2022-12-18T05:28:29;96410.31;;;4.17;100.00
3096;BME280;1558;42.700;23.360;2022-12-18T05:30:59;96381.41;;;3.89;100.00
3096;BME280;1558;42.700;23.360;2022-12-18T05:33:29;96331.16;;;3.61;100.00
3096;BME280;1558;42.700;23.360;2022-12-18T05:36:02;96412.97;;;4.12;100.00
3096;BME280;1558;42.700;23.360;2022-12-18T05:38:36;96381.69;;;3.87;100.00
3096;BME280;1558;42.700;23.360;2022-12-18T05:41:04;96333.53;;;3.52;100.00
3096;BME280;1558;42.700;23.360;2022-12-18T05:43:34;96436.72;;;4.08;100.00
3096;BME280;1558;42.700;23.360;2022-12-18T05:46:04;96440.44;;;4.07;100.00
3096;BME280;1558;42.700;23.360;2022-12-18T05:48:33;96393.38;;;3.81;100.00
3096;BME280;1558;42.700;23.360;2022-12-18T05:51:06;96427.38;;;4.06;100.00
3096;BME280;1558;42.700;23.360;2022-12-18T05:53:35;96431.63;;;4.07;100.00
3096;BME280;1558;42.700;23.360;2022-12-18T05:56:06;96404.88;;;3.87;100.00
3096;BME280;1558;42.700;23.360;2022-12-18T05:58:35;96429.19;;;3.95;100.00
3096;BME280;1558;42.700;23.360;2022-12-18T06:01:09;96411.78;;;3.73;100.00
3096;BME280;1558;42.700;23.360;2022-12-18T06:03:37;96448.16;;;3.94;100.00
3096;BME280;1558;42.700;23.360;2022-12-18T06:06:13;96439.06;;;3.95;100.00
3096;BME280;1558;42.700;23.360;2022-12-18T06:08:43;96457.75;;;3.95;100.00
3096;BME280;1558;42.700;23.360;2022-12-18T06:11:12;96449.16;;;3.88;100.00
3096;BME280;1558;42.700;23.360;2022-12-18T06:13:40;96452.13;;;3.91;100.00
3096;BME280;1558;42.700;23.360;2022-12-18T06:16:08;96447.03;;;3.85;100.00
3096;BME280;1558;42.700;23.360;2022-12-18T06:18:37;96468.16;;;3.96;100.00
3096;BME280;1558;42.700;23.360;2022-12-18T06:21:05;96442.19;;;3.77;100.00
3096;BME280;1558;42.700;23.360;2022-12-18T06:23:33;96396.44;;;3.48;100.00
3096;BME280;1558;42.700;23.360;2022-12-18T06:26:08;96473.78;;;4.00;100.00
3096;BME280;1558;42.700;23.360;2022-12-18T06:28:36;96476.19;;;3.96;100.00
3096;BME280;1558;42.700;23.360;2022-12-18T06:31:05;96444.00;;;3.66;100.00
3096;BME280;1558;42.700;23.360;2022-12-18T06:33:33;96480.19;;;3.99;100.00
3096;BME280;1558;42.700;23.360;2022-12-18T06:36:04;96480.72;;;4.01;100.00
3096;BME280;1558;42.700;23.360;2022-12-18T06:38:32;96493.00;;;3.97;100.00
3096;BME280;1558;42.700;23.360;2022-12-18T06:41:07;96495.13;;;4.00;100.00
3096;BME280;1558;42.700;23.360;2022-12-18T06:43:35;96422.28;;;3.42;100.00
3096;BME280;1558;42.700;23.360;2022-12-18T06:46:04;96499.13;;;3.97;100.00
3096;BME280;1558;42.700;23.360;2022-12-18T06:48:33;96499.94;;;3.98;100.00
3096;BME280;1558;42.700;23.360;2022-12-18T06:51:01;96504.75;;;4.01;100.00
3096;BME280;1558;42.700;23.360;2022-12-18T06:53:30;96476.09;;;3.81;100.00
3096;BME280;1558;42.700;23.360;2022-12-18T06:56:02;96516.00;;;4.08;100.00
3096;BME280;1558;42.700;23.360;2022-12-18T06:58:37;96423.97;;;3.59;100.00
3096;BME280;1558;42.700;23.360;2022-12-18T07:01:07;96487.63;;;3.92;100.00
3096;BME280;1558;42.700;23.360;2022-12-18T07:03:36;96510.44;;;4.20;100.00
3096;BME280;1558;42.700;23.360;2022-12-18T07:06:06;96518.72;;;4.18;100.00
3096;BME280;1558;42.700;23.360;2022-12-18T07:08:34;96518.41;;;4.15;100.00
3096;BME280;1558;42.700;23.360;2022-12-18T07:11:03;96506.91;;;4.04;100.00
3096;BME280;1558;42.700;23.360;2022-12-18T07:13:31;96525.09;;;4.17;100.00
3096;BME280;1558;42.700;23.360;2022-12-18T07:16:09;96507.97;;;4.08;100.00
3096;BME280;1558;42.700;23.360;2022-12-18T07:18:46;96533.13;;;4.17;100.00
3096;BME280;1558;42.700;23.360;2022-12-18T07:21:17;96532.53;;;4.10;100.00
3096;BME280;1558;42.700;23.360;2022-12-18T07:23:45;96530.41;;;4.12;100.00
3096;BME280;1558;42.700;23.360;2022-12-18T07:26:17;96529.91;;;4.15;100.00
3096;BME280;1558;42.700;23.360;2022-12-18T07:28:46;96515.41;;;3.96;100.00
3096;BME280;1558;42.700;23.360;2022-12-18T07:31:17;96521.25;;;3.93;100.00
3096;BME280;1558;42.700;23.360;2022-12-18T07:33:47;96531.97;;;4.03;100.00
3096;BME280;1558;42.700;23.360;2022-12-18T07:36:15;96465.03;;;3.58;100.00
3096;BME280;1558;42.700;23.360;2022-12-18T07:38:46;96535.97;;;4.00;100.00
3096;BME280;1558;42.700;23.360;2022-12-18T07:41:14;96543.72;;;3.97;100.00
3096;BME280;1558;42.700;23.360;2022-12-18T07:43:42;96552.25;;;3.99;100.00
3096;BME280;1558;42.700;23.360;2022-12-18T07:46:11;96487.44;;;3.62;100.00
3096;BME280;1558;42.700;23.360;2022-12-18T07:48:43;96473.50;;;3.50;100.00
3096;BME280;1558;42.700;23.360;2022-12-18T07:51:15;96551.47;;;4.03;100.00
3096;BME280;1558;42.700;23.360;2022-12-18T07:53:43;96558.41;;;4.04;100.00
3096;BME280;1558;42.700;23.360;2022-12-18T07:56:12;96552.81;;;4.06;100.00
3096;BME280;1558;42.700;23.360;2022-12-18T07:58:57;96557.34;;;4.05;100.00
3096;BME280;1558;42.700;23.360;2022-12-18T08:01:26;96558.66;;;4.03;100.00
3096;BME280;1558;42.700;23.360;2022-12-18T08:03:57;96569.63;;;4.06;100.00
3096;BME280;1558;42.700;23.360;2022-12-18T08:06:25;96574.19;;;4.06;100.00
3096;BME280;1558;42.700;23.360;2022-12-18T08:08:54;96570.44;;;4.07;100.00
3096;BME280;1558;42.700;23.360;2022-12-18T08:11:24;96581.91;;;4.07;100.00
3096;BME280;1558;42.700;23.360;2022-12-18T08:13:53;96577.34;;;4.03;100.00
3096;BME280;1558;42.700;23.360;2022-12-18T08:16:21;96529.38;;;3.71;100.00
3096;BME280;1558;42.700;23.360;2022-12-18T08:18:51;96572.53;;;4.00;100.00
3096;BME280;1558;42.700;23.360;2022-12-18T08:21:22;96601.94;;;4.10;100.00
3096;BME280;1558;42.700;23.360;2022-12-18T08:23:53;96594.94;;;3.99;100.00
3096;BME280;1558;42.700;23.360;2022-12-18T08:26:21;96604.59;;;4.05;100.00
3096;BME280;1558;42.700;23.360;2022-12-18T08:28:50;96434.25;;;2.98;100.00
3096;BME280;1558;42.700;23.360;2022-12-18T08:31:18;96606.44;;;4.04;100.00
3096;BME280;1558;42.700;23.360;2022-12-18T08:33:48;96605.09;;;4.02;100.00
3096;BME280;1558;42.700;23.360;2022-12-18T08:36:16;96608.59;;;4.07;100.00
3096;BME280;1558;42.700;23.360;2022-12-18T08:38:46;96613.72;;;4.14;100.00
3096;BME280;1558;42.700;23.360;2022-12-18T08:41:15;96606.78;;;4.13;100.00
3096;BME280;1558;42.700;23.360;2022-12-18T08:43:43;96606.78;;;4.13;100.00
3096;BME280;1558;42.700;23.360;2022-12-18T08:46:32;96597.38;;;4.05;100.00
3096;BME280;1558;42.700;23.360;2022-12-18T08:49:02;96611.06;;;4.19;100.00
3096;BME280;1558;42.700;23.360;2022-12-18T08:51:30;96621.25;;;4.22;100.00
3096;BME280;1558;42.700;23.360;2022-12-18T08:53:59;96601.94;;;4.10;100.00
3096;BME280;1558;42.700;23.360;2022-12-18T08:56:28;96510.28;;;3.48;100.00
3096;BME280;1558;42.700;23.360;2022-12-18T08:58:57;96631.13;;;4.22;100.00
3096;BME280;1558;42.700;23.360;2022-12-18T09:01:25;96621.25;;;4.22;100.00
3096;BME280;1558;42.700;23.360;2022-12-18T09:03:54;96609.19;;;4.15;100.00
3096;BME280;1558;42.700;23.360;2022-12-18T09:06:22;96618.50;;;4.12;100.00
3096;BME280;1558;42.700;23.360;2022-12-18T09:08:50;96617.00;;;4.26;100.00
3096;BME280;1558;42.700;23.360;2022-12-18T09:11:22;96615.91;;;4.22;100.00
3096;BME280;1558;42.700;23.360;2022-12-18T09:13:50;96588.56;;;4.05;100.00
3096;BME280;1558;42.700;23.360;2022-12-18T09:16:18;96616.25;;;4.36;100.00
3096;BME280;1558;42.700;23.360;2022-12-18T09:18:50;96561.88;;;4.05;100.00
3096;BME280;1558;42.700;23.360;2022-12-18T09:21:20;96594.03;;;4.25;100.00
3096;BME280;1558;42.700;23.360;2022-12-18T09:23:49;96612.84;;;4.50;100.00
3096;BME280;1558;42.700;23.360;2022-12-18T09:26:17;96613.44;;;4.62;100.00
3096;BME280;1558;42.700;23.360;2022-12-18T09:28:46;96595.19;;;4.44;100.00
3096;BME280;1558;42.700;23.360;2022-12-18T09:31:15;96611.81;;;4.61;100.00
3096;BME280;1558;42.700;23.360;2022-12-18T09:33:43;96608.38;;;4.61;100.00
3096;BME280;1558;42.700;23.360;2022-12-18T09:36:14;96573.25;;;4.32;100.00
3096;BME280;1558;42.700;23.360;2022-12-18T09:38:43;96576.97;;;4.31;100.00
3096;BME280;1558;42.700;23.360;2022-12-18T09:41:31;96619.31;;;4.64;100.00
3096;BME280;1558;42.700;23.360;2022-12-18T09:44:11;96620.41;;;4.73;100.00
3096;BME280;1558;42.700;23.360;2022-12-18T09:46:45;96620.41;;;4.73;100.00
3096;BME280;1558;42.700;23.360;2022-12-18T09:49:16;96604.09;;;4.65;100.00
3096;BME280;1558;42.700;23.360;2022-12-18T09:51:51;96618.28;;;4.75;100.00
3096;BME280;1558;42.700;23.360;2022-12-18T09:54:24;96613.22;;;4.74;100.00
3096;BME280;1558;42.700;23.360;2022-12-18T09:56:54;96616.41;;;4.71;100.00
3096;BME280;1558;42.700;23.360;2022-12-18T09:59:26;96608.94;;;4.73;100.00
3096;BME280;1558;42.700;23.360;2022-12-18T10:01:58;96609.75;;;4.78;100.00
3096;BME280;1558;42.700;23.360;2022-12-18T10:04:29;96613.72;;;4.71;100.00
3096;BME280;1558;42.700;23.360;2022-12-18T10:07:01;96614.81;;;4.75;100.00
3096;BME280;1558;42.700;23.360;2022-12-18T10:09:40;96606.56;;;4.82;100.00
3096;BME280;1558;42.700;23.360;2022-12-18T10:12:16;96613.25;;;4.84;100.00
3096;BME280;1558;42.700;23.360;2022-12-18T10:14:53;96617.25;;;4.82;100.00
3096;BME280;1558;42.700;23.360;2022-12-18T10:17:33;96609.22;;;4.82;100.00
3096;BME280;1558;42.700;23.360;2022-12-18T10:20:10;96589.94;;;4.69;100.00
3096;BME280;1558;42.700;23.360;2022-12-18T10:22:50;96592.44;;;4.91;100.00
3096;BME280;1558;42.700;23.360;2022-12-18T10:25:23;96620.00;;;5.12;100.00
3096;BME280;1558;42.700;23.360;2022-12-18T10:27:56;96615.47;;;5.12;100.00
3096;BME280;1558;42.700;23.360;2022-12-18T10:30:26;96614.16;;;5.25;100.00
3096;BME280;1558;42.700;23.360;2022-12-18T10:33:00;96612.56;;;5.34;100.00
3096;BME280;1558;42.700;23.360;2022-12-18T10:35:29;96609.06;;;5.28;100.00
3096;BME280;1558;42.700;23.360;2022-12-18T10:38:02;96588.44;;;5.09;100.00
3096;BME280;1558;42.700;23.360;2022-12-18T10:40:31;96610.94;;;5.23;100.00
3096;BME280;1558;42.700;23.360;2022-12-18T10:43:05;96594.09;;;5.22;100.00
3096;BME280;1558;42.700;23.360;2022-12-18T10:45:35;96604.53;;;5.29;100.00
3096;BME280;1558;42.700;23.360;2022-12-18T10:48:03;96605.88;;;5.26;100.00
3096;BME280;1558;42.700;23.360;2022-12-18T10:50:36;96607.72;;;5.21;100.00
3096;BME280;1558;42.700;23.360;2022-12-18T10:53:27;96586.31;;;5.06;100.00
3096;BME280;1558;42.700;23.360;2022-12-18T10:55:59;96578.50;;;4.79;100.00
3096;BME280;1558;42.700;23.360;2022-12-18T10:58:31;96592.97;;;4.98;100.00
3096;BME280;1558;42.700;23.360;2022-12-18T11:01:09;96607.69;;;5.06;100.00
3096;BME280;1558;42.700;23.360;2022-12-18T11:03:39;96451.13;;;4.07;100.00
3096;BME280;1558;42.700;23.360;2022-12-18T11:06:10;96557.91;;;4.79;100.00
3096;BME280;1558;42.700;23.360;2022-12-18T11:08:38;96608.75;;;5.05;100.00
3096;BME280;1558;42.700;23.360;2022-12-18T11:11:19;96606.09;;;5.10;100.00
3096;BME280;1558;42.700;23.360;2022-12-18T11:14:01;96606.91;;;5.10;100.00
3096;BME280;1558;42.700;23.360;2022-12-18T11:16:35;96610.13;;;5.17;100.00
3096;BME280;1558;42.700;23.360;2022-12-18T11:19:14;96605.84;;;5.21;100.00
3096;BME280;1558;42.700;23.360;2022-12-18T11:21:48;96607.72;;;5.21;100.00
3096;BME280;1558;42.700;23.360;2022-12-18T11:24:29;96533.25;;;4.57;100.00
3096;BME280;1558;42.700;23.360;2022-12-18T11:27:00;96609.28;;;5.02;100.00
3096;BME280;1558;42.700;23.360;2022-12-18T11:29:32;96623.75;;;5.11;100.00
3096;BME280;1558;42.700;23.360;2022-12-18T11:32:29;96548.81;;;4.70;100.00
3096;BME280;1558;42.700;23.360;2022-12-18T11:35:03;96610.13;;;5.12;100.00
3096;BME280;1558;42.700;23.360;2022-12-18T11:37:32;96568.06;;;4.88;100.00
3096;BME280;1558;42.700;23.360;2022-12-18T11:40:04;96587.91;;;5.12;100.00
3096;BME280;1558;42.700;23.360;2022-12-18T11:42:38;96612.00;;;5.17;100.00
3096;BME280;1558;42.700;23.360;2022-12-18T11:45:21;96545.59;;;4.63;100.00
3096;BME280;1558;42.700;23.360;2022-12-18T11:47:57;96588.16;;;5.00;100.00
3096;BME280;1558;42.700;23.360;2022-12-18T11:50:31;96602.91;;;5.13;100.00
3096;BME280;1558;42.700;23.360;2022-12-18T11:52:59;96608.81;;;5.20;100.00
3096;BME280;1558;42.700;23.360;2022-12-18T11:55:38;96518.31;;;4.61;100.00
3096;BME280;1558;42.700;23.360;2022-12-18T11:58:13;96589.53;;;5.08;100.00
3096;BME280;1558;42.700;23.360;2022-12-18T12:00:51;96594.59;;;5.09;100.00
3096;BME280;1558;42.700;23.360;2022-12-18T12:03:39;96605.56;;;5.13;100.00
3096;BME280;1558;42.700;23.360;2022-12-18T12:06:15;96602.38;;;5.11;100.00
3096;BME280;1558;42.700;23.360;2022-12-18T12:08:58;96600.72;;;5.00;100.00
3096;BME280;1558;42.700;23.360;2022-12-18T12:11:36;96614.41;;;5.08;100.00
3096;BME280;1558;42.700;23.360;2022-12-18T12:14:19;96593.22;;;5.02;100.00
3096;BME280;1558;42.700;23.360;2022-12-18T12:16:54;96613.63;;;5.18;100.00
3096;BME280;1558;42.700;23.360;2022-12-18T12:19:35;96591.13;;;5.19;100.00
3096;BME280;1558;42.700;23.360;2022-12-18T12:22:12;96606.69;;;5.32;100.00
3096;BME280;1558;42.700;23.360;2022-12-18T12:24:53;96613.09;;;5.31;100.00
3096;BME280;1558;42.700;23.360;2022-12-18T12:27:29;96608.81;;;5.30;100.00
3096;BME280;1558;42.700;23.360;2022-12-18T12:30:05;96592.50;;;5.26;100.00
3096;BME280;1558;42.700;23.360;2022-12-18T12:32:49;96586.34;;;5.16;100.00
3096;BME280;1558;42.700;23.360;2022-12-18T12:35:31;96606.38;;;5.23;100.00
3096;BME280;1558;42.700;23.360;2022-12-18T12:38:08;96603.97;;;5.12;100.00
3096;BME280;1558;42.700;23.360;2022-12-18T12:40:42;96606.63;;;5.07;100.00
3096;BME280;1558;42.700;23.360;2022-12-18T12:43:31;96617.88;;;5.24;100.00
3096;BME280;1558;42.700;23.360;2022-12-18T12:46:03;96613.59;;;5.28;100.00
3096;BME280;1558;42.700;23.360;2022-12-18T12:48:37;96565.72;;;5.01;100.00
3096;BME280;1558;42.700;23.360;2022-12-18T12:51:16;96609.91;;;5.39;100.00
3096;BME280;1558;42.700;23.360;2022-12-18T12:53:46;96620.59;;;5.39;100.00
3096;BME280;1558;42.700;23.360;2022-12-18T12:56:15;96600.25;;;5.33;100.00
3096;BME280;1558;42.700;23.360;2022-12-18T12:58:54;96621.13;;;5.41;100.00
3096;BME280;1558;42.700;23.360;2022-12-18T13:01:28;96574.53;;;5.12;100.00
3096;BME280;1558;42.700;23.360;2022-12-18T13:04:15;96621.41;;;5.39;100.00
3096;BME280;1558;42.700;23.360;2022-12-18T13:06:53;96629.41;;;5.24;100.00
3096;BME280;1558;42.700;23.360;2022-12-18T13:09:30;96644.88;;;5.17;100.00
3096;BME280;1558;42.700;23.360;2022-12-18T13:12:04;96626.41;;;5.06;100.00
3096;BME280;1558;42.700;23.360;2022-12-18T13:14:49;96651.84;;;5.18;100.00
3096;BME280;1558;42.700;23.360;2022-12-18T13:17:29;96616.25;;;5.03;100.00
3096;BME280;1558;42.700;23.360;2022-12-18T13:20:10;96654.84;;;5.37;100.00
3096;BME280;1558;42.700;23.360;2022-12-18T13:22:44;96634.75;;;5.24;100.00
3096;BME280;1558;42.700;23.360;2022-12-18T13:25:29;96601.81;;;4.99;100.00
3096;BME280;1558;42.700;23.360;2022-12-18T13:28:03;96650.78;;;5.24;100.00
3096;BME280;1558;42.700;23.360;2022-12-18T13:30:43;96652.66;;;5.29;100.00
3096;BME280;1558;42.700;23.360;2022-12-18T13:33:43;96647.81;;;5.11;100.00
3096;BME280;1558;42.700;23.360;2022-12-18T13:36:33;96661.22;;;5.16;100.00
3096;BME280;1558;42.700;23.360;2022-12-18T13:39:24;96662.00;;;5.21;100.00